Time;durP1;ratioP1;P1;durP2;ratioP2;P2;SDS_P1;SDS_P2;PMS_P1;PMS_P2;Temp;Humidity;BMP_temperature;BMP_pressure;BME280_temperature;BME280_humidity;BME280_pressure;Samples;Min_cycle;Max_cycle;Signal;HPM_P1;HPM_P2
2023/08/13 00:02:10;;;;;;;3.53;3.23;;;21.50;99.90;;;;;;4992261;28;20455;-59
2023/08/13 00:04:37;;;;;;;3.90;3.40;;;21.50;99.90;;;;;;4987540;28;20478;-58
2023/08/13 00:07:04;;;;;;;4.13;3.20;;;21.40;99.90;;;;;;4993278;28;20478;-59
2023/08/13 00:09:32;;;;;;;3.30;3.00;;;21.40;99.90;;;;;;4992569;28;20551;-59
2023/08/13 00:12:02;;;;;;;3.90;3.57;;;21.40;99.90;;;;;;4993033;28;20471;-58
2023/08/13 00:14:29;;;;;;;4.47;3.80;;;21.80;99.90;;;;;;4983332;28;20486;-60
2023/08/13 00:16:56;;;;;;;3.20;2.90;;;21.40;99.90;;;;;;4980182;28;20467;-59
2023/08/13 00:19:23;;;;;;;3.70;3.23;;;21.40;99.90;;;;;;4978344;28;20549;-62
2023/08/13 00:21:50;;;;;;;4.20;3.77;;;21.30;99.90;;;;;;4980034;28;20481;-60
2023/08/13 00:24:17;;;;;;;4.60;3.70;;;21.30;99.90;;;;;;4977731;28;20463;-60
2023/08/13 00:26:45;;;;;;;3.90;3.50;;;21.30;99.90;;;;;;4977246;28;20558;-60
2023/08/13 00:29:12;;;;;;;3.50;3.20;;;21.30;99.90;;;;;;4977565;28;20498;-58
2023/08/13 00:31:39;;;;;;;4.13;3.30;;;21.30;99.90;;;;;;4977157;28;20459;-60
2023/08/13 00:34:06;;;;;;;4.50;4.10;;;21.30;99.90;;;;;;4976388;28;20459;-60
2023/08/13 00:36:33;;;;;;;4.53;3.50;;;21.20;99.90;;;;;;4977236;28;20459;-59
2023/08/13 00:38:59;;;;;;;4.10;3.70;;;21.20;99.90;;;;;;4988625;28;20970;-60
2023/08/13 00:41:26;;;;;;;4.10;3.80;;;21.20;99.90;;;;;;4979039;28;20546;-59
2023/08/13 00:43:55;;;;;;;5.10;3.60;;;21.20;99.90;;;;;;4976845;28;20485;-60
2023/08/13 00:46:22;;;;;;;4.97;4.37;;;21.10;99.90;;;;;;4993808;28;20490;-56
2023/08/13 00:48:55;;;;;;;7.20;4.47;;;21.10;99.90;;;;;;4995349;28;20477;-58
2023/08/13 00:51:25;;;;;;;5.37;4.43;;;21.10;99.90;;;;;;5008745;28;20457;-58
2023/08/13 00:53:54;;;;;;;4.77;4.13;;;21.10;99.90;;;;;;5012254;28;20480;-60
2023/08/13 00:56:22;;;;;;;5.47;4.67;;;21.10;99.90;;;;;;5002511;28;20510;-60
2023/08/13 00:58:51;;;;;;;4.67;4.27;;;21.10;99.90;;;;;;5003483;28;20462;-60
2023/08/13 01:01:19;;;;;;;5.37;4.77;;;21.10;99.90;;;;;;4997734;28;20466;-60
2023/08/13 01:03:46;;;;;;;4.63;4.23;;;21.00;99.90;;;;;;4994785;28;20548;-60
2023/08/13 01:06:18;;;;;;;9.40;4.47;;;21.00;99.90;;;;;;4995322;28;20881;-60
2023/08/13 01:09:03;;;;;;;4.23;3.83;;;21.00;99.90;;;;;;4995233;28;20508;-59
2023/08/13 01:11:37;;;;;;;4.87;4.37;;;20.90;99.90;;;;;;4987776;28;20552;-58
2023/08/13 01:14:15;;;;;;;6.07;3.80;;;20.90;99.90;;;;;;4982135;28;20470;-59
2023/08/13 01:16:44;;;;;;;4.80;4.23;;;20.90;99.90;;;;;;4991440;28;20462;-60
2023/08/13 01:19:13;;;;;;;4.07;3.67;;;20.80;99.90;;;;;;4998293;28;20919;-60
2023/08/13 01:21:41;;;;;;;4.40;3.63;;;20.80;99.90;;;;;;4995526;28;20465;-60
2023/08/13 01:24:09;;;;;;;6.73;3.27;;;20.80;99.90;;;;;;4995138;28;20520;-60
2023/08/13 01:26:48;;;;;;;4.27;3.87;;;20.80;99.90;;;;;;4994764;28;20513;-60
2023/08/13 01:29:30;;;;;;;4.20;3.80;;;20.80;99.90;;;;;;4993618;28;20438;-57
2023/08/13 01:32:01;;;;;;;4.43;3.60;;;20.80;99.90;;;;;;4975740;28;20427;-60
2023/08/13 01:34:29;;;;;;;4.37;3.70;;;20.70;99.90;;;;;;4975489;28;20533;-60
2023/08/13 01:36:56;;;;;;;6.20;3.77;;;20.70;99.90;;;;;;4977083;28;20517;-59
2023/08/13 01:39:25;;;;;;;5.10;3.97;;;20.70;99.90;;;;;;4983089;28;20847;-59
2023/08/13 01:41:54;;;;;;;4.40;4.00;;;20.70;99.90;;;;;;4986564;28;20510;-59
2023/08/13 01:44:21;;;;;;;5.87;3.90;;;20.60;99.90;;;;;;4986686;28;20458;-61
2023/08/13 01:46:48;;;;;;;4.67;4.23;;;20.70;99.90;;;;;;4984777;28;20511;-59
2023/08/13 01:49:15;;;;;;;4.03;3.70;;;20.70;99.90;;;;;;4982622;28;20655;-59
2023/08/13 01:51:41;;;;;;;4.73;4.30;;;20.60;99.90;;;;;;4979378;28;20530;-59
2023/08/13 01:54:10;;;;;;;5.03;3.70;;;20.60;99.90;;;;;;4978818;28;20516;-60
2023/08/13 01:56:41;;;;;;;5.70;3.67;;;20.60;99.90;;;;;;4992738;28;20438;-61
2023/08/13 01:59:08;;;;;;;5.30;4.07;;;20.70;99.90;;;;;;5001756;28;20553;-60
2023/08/13 02:01:35;;;;;;;4.20;3.80;;;20.70;99.90;;;;;;5002581;28;20524;-60
2023/08/13 02:04:02;;;;;;;4.60;4.20;;;20.70;99.90;;;;;;5000677;28;20484;-60
2023/08/13 02:06:31;;;;;;;5.93;4.13;;;20.80;99.90;;;;;;5008626;28;20601;-50
2023/08/13 02:08:58;;;;;;;4.70;3.80;;;20.80;99.90;;;;;;5021580;28;20449;-49
2023/08/13 02:11:25;;;;;;;4.53;4.13;;;20.70;99.90;;;;;;5004149;28;20958;-60
2023/08/13 02:14:03;;;;;;;4.30;3.90;;;20.70;99.90;;;;;;4978888;28;20537;-60
2023/08/13 02:16:29;;;;;;;6.80;4.70;;;20.70;99.90;;;;;;5001658;28;20414;-57
2023/08/13 02:18:56;;;;;;;4.33;3.43;;;20.70;99.90;;;;;;4986491;28;20943;-60
2023/08/13 02:21:26;;;;;;;3.50;3.20;;;20.70;99.90;;;;;;4990367;28;20439;-51
2023/08/13 02:23:53;;;;;;;5.23;4.00;;;20.80;99.90;;;;;;4978432;28;20846;-59
2023/08/13 02:26:23;;;;;;;4.97;4.47;;;20.70;99.90;;;;;;4997683;28;20486;-47
2023/08/13 02:28:50;;;;;;;4.30;3.90;;;20.70;99.90;;;;;;4981736;28;20546;-59
2023/08/13 02:31:19;;;;;;;4.83;4.23;;;20.70;99.90;;;;;;4996003;28;20450;-59
2023/08/13 02:33:45;;;;;;;4.90;4.30;;;20.70;99.90;;;;;;4978313;28;20910;-59
2023/08/13 02:36:13;;;;;;;4.53;3.70;;;20.80;99.90;;;;;;4978127;28;21039;-61
2023/08/13 02:38:40;;;;;;;4.40;3.80;;;20.70;99.90;;;;;;4978152;28;20873;-59
2023/08/13 02:41:06;;;;;;;4.53;4.13;;;20.70;99.90;;;;;;4979272;28;20952;-60
2023/08/13 02:43:49;;;;;;;3.97;3.57;;;20.60;99.90;;;;;;5019106;28;20453;-46
2023/08/13 02:46:19;;;;;;;8.53;4.30;;;20.60;99.90;;;;;;5021029;28;20457;-51
2023/08/13 02:48:49;;;;;;;7.40;4.37;;;20.50;99.90;;;;;;5019766;28;20438;-51
2023/08/13 02:51:19;;;;;;;9.83;3.73;;;20.50;99.90;;;;;;5020942;28;20414;-48
2023/08/13 02:53:45;;;;;;;5.67;4.10;;;20.50;99.90;;;;;;4998293;28;20493;-60
2023/08/13 02:56:13;;;;;;;6.53;3.67;;;20.40;99.90;;;;;;4997553;28;20457;-60
2023/08/13 02:58:40;;;;;;;6.20;4.10;;;20.40;99.90;;;;;;4997134;28;20470;-60
2023/08/13 03:01:07;;;;;;;4.53;4.13;;;20.40;99.90;;;;;;4997390;28;20947;-60
2023/08/13 03:03:35;;;;;;;5.93;4.13;;;20.40;99.90;;;;;;4996584;28;20537;-59
2023/08/13 03:06:02;;;;;;;4.20;3.80;;;20.40;99.90;;;;;;4996953;28;20514;-59
2023/08/13 03:08:29;;;;;;;5.70;4.60;;;20.30;99.90;;;;;;4997071;28;20741;-61
2023/08/13 03:10:56;;;;;;;5.90;4.23;;;20.30;99.90;;;;;;4997221;28;20545;-60
2023/08/13 03:13:23;;;;;;;5.20;4.27;;;20.30;99.90;;;;;;4997154;28;20470;-60
2023/08/13 03:15:50;;;;;;;5.03;4.40;;;20.20;99.90;;;;;;4996849;28;20442;-60
2023/08/13 03:18:17;;;;;;;8.70;4.23;;;20.20;99.90;;;;;;4997569;28;20462;-59
2023/08/13 03:20:46;;;;;;;4.97;4.47;;;20.20;99.90;;;;;;4999435;28;20508;-60
2023/08/13 03:23:14;;;;;;;4.73;3.90;;;20.10;99.90;;;;;;5003207;28;20509;-60
2023/08/13 03:25:41;;;;;;;6.50;4.60;;;20.10;99.90;;;;;;5001663;28;20520;-60
2023/08/13 03:28:07;;;;;;;9.00;4.83;;;20.00;99.90;;;;;;5004632;28;20541;-60
2023/08/13 03:30:34;;;;;;;7.63;4.83;;;20.00;99.90;;;;;;4997984;28;20501;-60
2023/08/13 03:33:01;;;;;;;9.93;4.47;;;20.00;99.90;;;;;;4996939;28;20528;-59
2023/08/13 03:35:28;;;;;;;4.67;4.17;;;20.00;99.90;;;;;;4996334;28;20497;-60
2023/08/13 03:37:56;;;;;;;4.80;3.87;;;20.00;99.90;;;;;;4996297;28;20462;-60
2023/08/13 03:40:23;;;;;;;4.80;4.30;;;19.90;99.90;;;;;;4996596;28;21030;-60
2023/08/13 03:42:50;;;;;;;8.77;4.70;;;19.90;99.90;;;;;;4996380;28;20453;-59
2023/08/13 03:45:17;;;;;;;3.70;3.40;;;19.90;99.90;;;;;;4997415;28;20470;-60
2023/08/13 03:47:44;;;;;;;5.63;3.77;;;19.80;99.90;;;;;;5000746;28;20456;-58
2023/08/13 03:50:11;;;;;;;5.27;4.00;;;19.80;99.90;;;;;;5002558;28;20489;-60
2023/08/13 03:52:39;;;;;;;5.07;4.30;;;19.80;99.90;;;;;;5000363;28;20450;-60
2023/08/13 03:55:09;;;;;;;7.33;4.50;;;19.80;99.90;;;;;;5002936;28;20493;-59
2023/08/13 03:57:36;;;;;;;4.80;4.10;;;19.80;99.90;;;;;;4999404;28;20442;-59
2023/08/13 04:00:03;;;;;;;4.50;4.10;;;19.80;99.90;;;;;;5002982;28;20470;-61
2023/08/13 04:02:33;;;;;;;4.87;4.17;;;19.80;99.90;;;;;;4990889;28;20486;-59
2023/08/13 04:05:01;;;;;;;4.00;3.60;;;19.70;99.90;;;;;;4994751;28;20564;-60
2023/08/13 04:07:27;;;;;;;4.93;4.20;;;19.80;99.90;;;;;;4995888;28;20473;-60
2023/08/13 04:09:54;;;;;;;7.40;4.77;;;19.80;99.90;;;;;;4996088;28;20797;-57
2023/08/13 04:12:23;;;;;;;5.93;4.60;;;19.80;99.90;;;;;;4995983;28;20481;-59
2023/08/13 04:14:50;;;;;;;5.77;4.43;;;19.80;99.90;;;;;;4995662;28;20899;-59
2023/08/13 04:17:16;;;;;;;5.83;4.03;;;19.80;99.90;;;;;;4995793;28;20522;-60
2023/08/13 04:19:43;;;;;;;4.43;4.00;;;19.80;99.90;;;;;;4995988;28;20537;-60
2023/08/13 04:22:10;;;;;;;4.80;4.30;;;19.70;99.90;;;;;;4997911;28;20454;-59
2023/08/13 04:24:37;;;;;;;4.73;4.33;;;19.80;99.90;;;;;;5000587;28;20465;-61
2023/08/13 04:27:05;;;;;;;4.40;3.73;;;19.80;99.90;;;;;;4996478;28;20486;-56
2023/08/13 04:29:34;;;;;;;4.07;3.67;;;19.80;99.90;;;;;;4976408;28;20461;-60
2023/08/13 04:32:01;;;;;;;6.33;4.40;;;19.80;99.90;;;;;;4976266;28;20542;-61
2023/08/13 04:34:27;;;;;;;4.37;3.97;;;19.80;99.90;;;;;;4976438;28;20478;-62
2023/08/13 04:36:54;;;;;;;4.50;4.10;;;19.80;99.90;;;;;;4976192;28;20510;-59
2023/08/13 04:39:21;;;;;;;6.10;4.83;;;19.80;99.90;;;;;;4991133;28;20557;-60
2023/08/13 04:41:48;;;;;;;5.20;4.27;;;19.80;99.90;;;;;;4995869;28;20553;-58
2023/08/13 04:44:15;;;;;;;4.07;3.67;;;19.80;99.90;;;;;;4996014;28;20481;-59
2023/08/13 04:46:43;;;;;;;4.20;3.80;;;19.90;99.90;;;;;;4995387;28;20577;-58
2023/08/13 04:49:10;;;;;;;4.40;4.00;;;19.80;99.90;;;;;;4995579;28;20516;-61
2023/08/13 04:51:38;;;;;;;9.10;4.27;;;19.80;99.90;;;;;;5013164;28;20446;-47
2023/08/13 04:54:05;;;;;;;4.53;3.80;;;19.80;99.90;;;;;;5018880;28;20414;-48
2023/08/13 04:56:32;;;;;;;4.10;3.60;;;19.80;99.90;;;;;;5018712;28;20454;-51
2023/08/13 04:58:59;;;;;;;6.07;4.40;;;19.90;99.90;;;;;;4997997;28;20496;-59
2023/08/13 05:01:26;;;;;;;5.00;4.50;;;20.00;99.90;;;;;;4995386;28;20498;-61
2023/08/13 05:03:54;;;;;;;4.70;3.93;;;20.00;99.90;;;;;;4995217;28;20548;-60
2023/08/13 05:06:22;;;;;;;4.80;3.77;;;18.80;99.90;;;;;;4997563;28;20580;-62
2023/08/13 05:08:49;;;;;;;4.50;4.10;;;20.10;99.90;;;;;;4996968;28;20458;-60
2023/08/13 05:11:16;;;;;;;4.07;3.63;;;20.20;99.90;;;;;;5001813;28;20486;-60
2023/08/13 05:13:43;;;;;;;4.50;3.60;;;20.20;99.90;;;;;;5006956;28;20462;-61
2023/08/13 05:16:09;;;;;;;4.20;2.80;;;20.30;99.90;;;;;;5007168;28;20462;-59
2023/08/13 05:18:36;;;;;;;6.20;3.97;;;20.30;99.90;;;;;;5007140;28;20465;-60
2023/08/13 05:21:06;;;;;;;6.20;3.37;;;20.30;99.90;;;;;;5001572;28;20476;-60
2023/08/13 05:23:33;;;;;;;5.43;3.60;;;20.40;99.90;;;;;;4999058;28;20516;-60
2023/08/13 05:26:00;;;;;;;4.40;3.30;;;20.40;99.90;;;;;;4998941;28;20482;-60
2023/08/13 05:28:27;;;;;;;3.60;3.20;;;18.90;99.90;;;;;;4999001;28;20521;-59
2023/08/13 05:30:54;;;;;;;6.20;3.07;;;20.50;99.90;;;;;;4999099;28;20454;-61
2023/08/13 05:33:20;;;;;;;5.50;3.37;;;20.60;99.90;;;;;;4998859;28;20449;-58
2023/08/13 05:35:47;;;;;;;3.80;3.13;;;21.00;99.90;;;;;;4998756;28;20957;-60
2023/08/13 05:38:16;;;;;;;3.73;3.20;;;20.80;99.90;;;;;;4998562;28;20501;-59
2023/08/13 05:40:43;;;;;;;3.70;2.40;;;20.80;99.90;;;;;;4999261;28;20577;-58
2023/08/13 05:43:13;;;;;;;5.77;3.10;;;20.80;99.90;;;;;;5000618;28;20470;-60
2023/08/13 05:45:42;;;;;;;8.47;2.43;;;20.90;99.90;;;;;;4999392;28;20450;-60
2023/08/13 05:48:09;;;;;;;5.90;3.00;;;20.90;99.90;;;;;;4998595;28;20985;-60
2023/08/13 05:50:36;;;;;;;3.63;2.37;;;21.00;99.90;;;;;;4998710;28;20473;-60
2023/08/13 05:53:03;;;;;;;4.50;2.77;;;21.00;99.90;;;;;;4998601;28;20465;-61
2023/08/13 05:55:31;;;;;;;3.87;2.30;;;21.00;99.90;;;;;;4998403;28;20535;-60
2023/08/13 05:57:58;;;;;;;8.00;3.20;;;21.00;99.90;;;;;;4998285;28;20465;-59
2023/08/13 06:00:25;;;;;;;3.90;3.00;;;21.10;99.90;;;;;;4998459;28;20504;-61
2023/08/13 06:02:52;;;;;;;4.10;2.57;;;21.10;99.90;;;;;;4998326;28;20509;-60
2023/08/13 06:05:20;;;;;;;3.10;2.60;;;21.20;99.90;;;;;;4998230;28;20477;-62
2023/08/13 06:07:47;;;;;;;3.70;2.60;;;21.20;99.90;;;;;;4997989;28;20556;-61
2023/08/13 06:10:13;;;;;;;2.97;2.67;;;21.30;99.90;;;;;;4998141;28;20442;-60
2023/08/13 06:12:42;;;;;;;2.67;2.43;;;21.30;99.90;;;;;;4999525;28;20507;-61
2023/08/13 06:15:09;;;;;;;2.70;2.30;;;21.30;99.90;;;;;;4998317;28;20454;-59
2023/08/13 06:17:36;;;;;;;3.93;2.20;;;21.30;99.90;;;;;;4997866;28;20470;-61
2023/08/13 06:20:04;;;;;;;4.63;2.60;;;21.30;99.90;;;;;;4998075;28;20512;-60
2023/08/13 06:22:31;;;;;;;3.93;2.60;;;21.30;99.90;;;;;;4997917;28;20477;-62
2023/08/13 06:24:58;;;;;;;4.10;3.40;;;21.30;99.90;;;;;;4998009;28;20446;-59
2023/08/13 06:27:25;;;;;;;10.60;2.70;;;21.40;99.90;;;;;;4997829;28;20497;-61
2023/08/13 06:29:53;;;;;;;9.43;3.10;;;21.30;99.90;;;;;;4997834;28;20500;-60
2023/08/13 06:32:20;;;;;;;8.00;2.27;;;21.30;99.90;;;;;;4997858;28;20469;-60
2023/08/13 06:34:47;;;;;;;6.03;3.63;;;21.30;99.90;;;;;;4998076;28;20517;-60
2023/08/13 06:37:14;;;;;;;4.77;3.10;;;21.30;99.90;;;;;;4997888;28;20458;-61
2023/08/13 06:39:41;;;;;;;4.90;2.70;;;21.40;99.90;;;;;;4998092;28;20829;-60
2023/08/13 06:42:08;;;;;;;3.93;2.43;;;21.40;99.90;;;;;;4997933;28;20454;-59
2023/08/13 06:44:35;;;;;;;2.23;1.90;;;21.40;99.90;;;;;;4998111;28;20497;-62
2023/08/13 06:47:03;;;;;;;3.03;2.50;;;21.50;99.90;;;;;;4997815;28;20552;-61
2023/08/13 06:49:30;;;;;;;2.83;2.37;;;21.50;99.90;;;;;;4997518;28;20509;-60
2023/08/13 06:51:57;;;;;;;2.70;2.40;;;21.60;99.90;;;;;;4998359;28;20442;-61
2023/08/13 06:54:26;;;;;;;2.77;1.87;;;21.70;99.90;;;;;;5000063;28;20454;-60
2023/08/13 06:56:53;;;;;;;4.70;2.87;;;21.80;99.90;;;;;;4997642;28;20457;-60
2023/08/13 06:59:20;;;;;;;3.73;3.37;;;21.90;99.90;;;;;;4997450;28;20458;-60
2023/08/13 07:01:47;;;;;;;3.60;2.63;;;21.90;99.90;;;;;;4997707;28;20507;-60
2023/08/13 07:04:15;;;;;;;4.97;2.13;;;22.10;99.90;;;;;;4997489;28;20544;-58
2023/08/13 07:06:43;;;;;;;3.00;2.13;;;22.20;99.90;;;;;;4997022;28;20481;-59
2023/08/13 07:09:10;;;;;;;6.37;2.43;;;22.30;99.90;;;;;;4999747;28;20508;-60
2023/08/13 07:11:37;;;;;;;4.43;3.00;;;22.60;99.90;;;;;;4998069;28;20553;-59
2023/08/13 07:14:04;;;;;;;3.67;2.40;;;22.40;99.90;;;;;;4996868;28;20470;-61
2023/08/13 07:16:31;;;;;;;4.03;2.60;;;22.40;99.90;;;;;;4996990;28;20470;-60
2023/08/13 07:18:59;;;;;;;3.03;2.10;;;22.40;99.90;;;;;;5000100;28;20489;-59
2023/08/13 07:21:27;;;;;;;4.33;3.20;;;22.40;99.90;;;;;;4998039;28;20825;-62
2023/08/13 07:23:54;;;;;;;4.90;2.80;;;22.40;99.90;;;;;;4996892;28;20470;-58
2023/08/13 07:26:21;;;;;;;4.43;3.13;;;22.40;99.90;;;;;;4996889;28;20533;-63
2023/08/13 07:28:48;;;;;;;3.60;2.67;;;22.40;99.90;;;;;;4996891;28;20795;-61
2023/08/13 07:31:18;;;;;;;6.33;3.00;;;22.40;99.90;;;;;;4996861;28;20520;-63
2023/08/13 07:33:45;;;;;;;3.07;2.80;;;22.50;99.90;;;;;;4996551;28;20863;-62
2023/08/13 07:36:11;;;;;;;3.03;2.40;;;22.50;99.90;;;;;;4995896;28;21006;-60
2023/08/13 07:38:40;;;;;;;3.97;2.63;;;22.50;99.90;;;;;;4996460;28;20485;-60
2023/08/13 07:41:07;;;;;;;6.10;2.40;;;22.60;99.90;;;;;;4996551;28;20474;-60
2023/08/13 07:43:34;;;;;;;4.13;2.67;;;22.60;99.90;;;;;;4996505;28;20478;-62
2023/08/13 07:46:00;;;;;;;4.40;2.57;;;22.80;99.90;;;;;;4996663;28;20545;-60
2023/08/13 07:48:27;;;;;;;3.90;2.03;;;22.90;99.90;;;;;;4998782;28;20593;-61
2023/08/13 07:50:55;;;;;;;5.00;2.13;;;23.10;99.90;;;;;;5002643;28;20763;-62
2023/08/13 07:53:22;;;;;;;13.07;2.70;;;23.30;99.90;;;;;;5002159;28;20501;-59
2023/08/13 07:55:51;;;;;;;7.17;2.80;;;23.80;99.90;;;;;;5000464;28;20501;-59
2023/08/13 07:58:18;;;;;;;5.27;2.30;;;25.00;99.90;;;;;;5000561;28;20891;-59
2023/08/13 08:00:45;;;;;;;3.33;2.13;;;26.50;99.90;;;;;;5011731;28;20454;-58
2023/08/13 08:03:13;;;;;;;3.30;2.63;;;28.10;99.90;;;;;;5003977;28;20556;-60
2023/08/13 08:05:41;;;;;;;2.63;2.13;;;29.60;99.90;;;;;;4997931;28;20477;-62
2023/08/13 08:08:07;;;;;;;2.63;2.00;;;30.60;99.90;;;;;;4999328;28;20572;-62
2023/08/13 08:10:34;;;;;;;5.00;2.70;;;31.60;95.10;;;;;;5004677;28;20446;-63
2023/08/13 08:13:03;;;;;;;5.23;2.00;;;32.50;88.50;;;;;;5000292;28;20537;-59
2023/08/13 08:15:30;;;;;;;5.30;2.03;;;33.10;82.90;;;;;;4980204;28;20530;-62
2023/08/13 08:17:56;;;;;;;3.47;2.30;;;33.40;75.70;;;;;;4976804;28;20538;-61
2023/08/13 08:20:23;;;;;;;4.33;2.20;;;32.40;74.50;;;;;;4976827;28;20535;-60
2023/08/13 08:22:50;;;;;;;4.43;2.63;;;31.60;77.80;;;;;;4980358;28;20574;-61
2023/08/13 08:25:17;;;;;;;5.43;1.93;;;31.50;78.20;;;;;;4986675;28;20486;-60
2023/08/13 08:27:44;;;;;;;4.40;2.77;;;31.50;78.90;;;;;;4977085;28;20931;-59
2023/08/13 08:30:13;;;;;;;6.90;3.50;;;31.90;77.40;;;;;;4976272;28;20854;-60
2023/08/13 08:32:40;;;;;;;2.23;2.03;;;32.20;77.40;;;;;;4976210;28;20888;-62
2023/08/13 08:35:07;;;;;;;5.17;2.90;;;32.60;75.00;;;;;;4976125;28;21034;-63
2023/08/13 08:37:34;;;;;;;5.43;3.20;;;33.10;70.60;;;;;;4976309;28;20455;-61
2023/08/13 08:40:02;;;;;;;3.53;2.43;;;33.20;68.50;;;;;;4976238;28;20525;-60
2023/08/13 08:42:31;;;;;;;3.67;2.30;;;33.40;65.80;;;;;;4976005;28;20482;-60
2023/08/13 08:44:59;;;;;;;7.87;4.30;;;33.40;64.30;;;;;;4976099;28;20908;-60
2023/08/13 08:47:29;;;;;;;5.57;3.60;;;33.40;64.40;;;;;;4976307;28;20525;-61
2023/08/13 08:49:56;;;;;;;5.70;3.27;;;34.00;62.30;;;;;;4976117;28;20474;-61
2023/08/13 08:52:23;;;;;;;7.23;4.03;;;34.30;61.70;;;;;;4976066;28;20473;-62
2023/08/13 08:54:50;;;;;;;7.33;3.10;;;34.50;57.80;;;;;;4979698;28;20553;-62
2023/08/13 08:57:17;;;;;;;11.20;5.33;;;34.70;57.40;;;;;;4995673;28;20442;-62
2023/08/13 08:59:45;;;;;;;11.13;5.67;;;35.00;56.10;;;;;;4996216;28;20497;-60
2023/08/13 09:02:13;;;;;;;7.33;3.53;;;35.00;56.20;;;;;;4996984;28;20454;-59
2023/08/13 09:04:41;;;;;;;5.77;3.30;;;34.80;55.30;;;;;;4995159;28;20466;-59
2023/08/13 09:07:10;;;;;;;8.23;4.63;;;34.70;55.30;;;;;;5004016;28;20454;-52
2023/08/13 09:09:37;;;;;;;5.57;3.40;;;34.70;54.70;;;;;;5018617;28;20458;-55
2023/08/13 09:12:05;;;;;;;6.20;2.70;;;34.80;54.20;;;;;;5018730;28;20409;-50
2023/08/13 09:14:32;;;;;;;6.00;3.80;;;34.70;54.30;;;;;;5018243;28;20427;-59
2023/08/13 09:16:59;;;;;;;3.93;2.50;;;34.90;53.70;;;;;;5014831;28;20446;-58
2023/08/13 09:19:29;;;;;;;8.00;4.07;;;35.00;53.70;;;;;;5009607;28;20446;-52
2023/08/13 09:22:00;;;;;;;3.47;2.33;;;35.10;53.20;;;;;;5004596;28;20434;-64
2023/08/13 09:24:35;;;;;;;4.17;2.50;;;35.10;53.20;;;;;;4995191;28;20496;-61
2023/08/13 09:27:03;;;;;;;2.50;2.30;;;35.00;51.80;;;;;;4995129;28;20887;-60
2023/08/13 09:29:31;;;;;;;5.00;2.67;;;34.70;53.00;;;;;;4994942;28;20501;-61
2023/08/13 09:31:58;;;;;;;4.27;2.80;;;34.70;53.20;;;;;;4994886;28;20532;-60
2023/08/13 09:34:25;;;;;;;3.70;2.13;;;34.70;53.30;;;;;;4995273;28;20513;-61
2023/08/13 09:36:54;;;;;;;11.53;4.67;;;34.60;53.00;;;;;;4995114;28;20482;-62
2023/08/13 09:39:23;;;;;;;7.23;4.47;;;34.60;53.40;;;;;;4994798;28;20953;-59
2023/08/13 09:41:52;;;;;;;6.87;2.57;;;34.60;53.70;;;;;;4994902;28;20457;-60
2023/08/13 09:44:24;;;;;;;6.63;3.53;;;34.70;53.30;;;;;;4994804;28;20533;-61
2023/08/13 09:46:58;;;;;;;7.00;4.43;;;35.00;53.60;;;;;;5006487;28;20488;-58
2023/08/13 09:49:28;;;;;;;3.67;3.13;;;35.10;52.80;;;;;;4998557;28;20534;-61
2023/08/13 09:51:57;;;;;;;6.20;3.00;;;35.50;52.10;;;;;;5003667;28;20886;-62
2023/08/13 09:54:30;;;;;;;6.63;3.53;;;35.70;51.60;;;;;;5003582;28;20446;-61
2023/08/13 09:57:02;;;;;;;4.13;3.10;;;35.70;50.70;;;;;;5002548;28;20434;-61
2023/08/13 09:59:30;;;;;;;4.10;2.43;;;35.50;51.60;;;;;;5006094;28;20513;-59
2023/08/13 10:01:58;;;;;;;12.83;5.70;;;35.50;51.30;;;;;;5004567;28;20502;-57
2023/08/13 10:04:25;;;;;;;12.27;7.33;;;35.60;52.40;;;;;;4997817;28;20541;-62
2023/08/13 10:06:53;;;;;;;6.40;4.00;;;35.50;51.40;;;;;;4998132;28;20556;-61
2023/08/13 10:09:22;;;;;;;3.93;2.50;;;35.60;50.50;;;;;;4998043;28;20565;-61
2023/08/13 10:11:50;;;;;;;10.80;4.70;;;35.50;50.40;;;;;;4998436;28;20834;-61
2023/08/13 10:14:18;;;;;;;12.00;6.17;;;35.10;50.40;;;;;;4998223;28;20442;-61
2023/08/13 10:16:46;;;;;;;3.73;2.53;;;34.40;51.00;;;;;;4998139;28;20497;-63
2023/08/13 10:19:14;;;;;;;10.70;5.20;;;34.10;51.90;;;;;;4998194;28;20521;-61
2023/08/13 10:21:42;;;;;;;5.13;3.17;;;34.00;52.20;;;;;;4997806;28;20466;-62
2023/08/13 10:24:12;;;;;;;4.10;2.90;;;33.80;52.70;;;;;;4998086;28;20493;-61
2023/08/13 10:26:41;;;;;;;6.47;2.47;;;33.80;53.30;;;;;;4997985;28;20553;-62
2023/08/13 10:29:16;;;;;;;6.60;4.03;;;33.80;52.50;;;;;;4997906;28;21029;-63
2023/08/13 10:31:49;;;;;;;4.30;2.70;;;33.70;51.50;;;;;;4997973;28;20476;-59
2023/08/13 10:34:19;;;;;;;5.80;4.17;;;33.30;51.80;;;;;;4985257;28;20903;-64
2023/08/13 10:36:51;;;;;;;5.37;2.70;;;33.00;53.20;;;;;;4978375;28;20538;-62
2023/08/13 10:39:37;;;;;;;3.50;3.10;;;32.80;53.30;;;;;;4978372;28;20463;-62
2023/08/13 10:42:19;;;;;;;15.00;9.93;;;32.70;53.40;;;;;;4980627;28;20804;-62
2023/08/13 10:44:49;;;;;;;3.67;3.30;;;32.50;53.50;;;;;;4981566;28;20514;-62
2023/08/13 10:47:16;;;;;;;10.00;4.60;;;32.20;54.30;;;;;;4980948;28;20494;-59
2023/08/13 10:49:43;;;;;;;7.87;3.40;;;32.20;56.00;;;;;;4981616;28;20579;-61
2023/08/13 10:52:13;;;;;;;3.87;3.30;;;32.00;55.20;;;;;;4978272;28;20478;-61
2023/08/13 10:54:41;;;;;;;6.13;3.50;;;31.90;56.10;;;;;;4979752;28;20479;-63
2023/08/13 10:57:08;;;;;;;4.03;2.83;;;32.00;56.70;;;;;;4978031;28;20894;-62
2023/08/13 10:59:40;;;;;;;5.00;2.20;;;32.00;55.60;;;;;;4978102;28;20441;-62
2023/08/13 11:02:15;;;;;;;3.10;2.33;;;31.60;54.70;;;;;;4977755;28;20467;-60
2023/08/13 11:04:44;;;;;;;4.20;2.20;;;31.00;55.30;;;;;;4977560;28;20527;-60
2023/08/13 11:07:10;;;;;;;4.40;2.30;;;30.70;56.90;;;;;;4977726;28;20831;-62
2023/08/13 11:09:37;;;;;;;3.50;3.20;;;30.60;56.90;;;;;;4977079;28;20479;-61
2023/08/13 11:12:06;;;;;;;11.97;6.43;;;30.50;57.60;;;;;;4977802;28;20470;-61
2023/08/13 11:14:33;;;;;;;5.40;3.40;;;30.20;58.10;;;;;;4977766;28;20450;-62
2023/08/13 11:17:00;;;;;;;2.90;2.50;;;29.70;59.60;;;;;;4978172;28;20474;-62
2023/08/13 11:19:28;;;;;;;2.60;2.30;;;29.40;60.30;;;;;;4979258;28;20979;-64
2023/08/13 11:21:56;;;;;;;5.67;2.73;;;29.40;61.70;;;;;;4979379;28;20507;-62
2023/08/13 11:24:23;;;;;;;6.97;5.00;;;29.30;61.30;;;;;;4979302;28;20486;-61
2023/08/13 11:26:52;;;;;;;13.43;8.30;;;29.10;62.30;;;;;;4979790;28;20932;-64
2023/08/13 11:29:22;;;;;;;5.80;3.50;;;29.20;61.30;;;;;;4981964;28;20486;-59
2023/08/13 11:31:49;;;;;;;3.63;2.30;;;29.10;62.60;;;;;;4982246;28;20482;-62
2023/08/13 11:34:18;;;;;;;3.70;2.40;;;28.80;63.10;;;;;;4981570;28;20443;-61
2023/08/13 11:36:49;;;;;;;5.00;3.00;;;28.50;63.80;;;;;;4998966;28;20477;-61
2023/08/13 11:39:18;;;;;;;4.43;3.23;;;28.30;63.70;;;;;;4997486;28;20474;-61
2023/08/13 11:41:45;;;;;;;6.37;3.87;;;28.40;63.90;;;;;;4996683;28;20462;-62
2023/08/13 11:44:12;;;;;;;7.40;4.80;;;28.50;63.60;;;;;;4996707;28;20518;-61
2023/08/13 11:46:52;;;;;;;4.43;2.37;;;28.70;62.90;;;;;;5017677;28;20422;-47
2023/08/13 11:49:22;;;;;;;6.00;2.23;;;28.70;64.00;;;;;;5019843;28;20461;-47
2023/08/13 11:51:51;;;;;;;3.83;2.73;;;28.70;63.70;;;;;;5019763;28;20434;-51
2023/08/13 11:54:22;;;;;;;4.70;2.33;;;28.70;63.60;;;;;;5019865;28;20417;-48
2023/08/13 11:56:51;;;;;;;6.60;4.33;;;28.70;64.60;;;;;;5019801;28;20411;-53
2023/08/13 11:59:29;;;;;;;7.87;2.80;;;28.70;63.60;;;;;;5019679;28;20422;-46
2023/08/13 12:01:57;;;;;;;3.60;2.50;;;28.80;62.40;;;;;;5011802;28;20426;-61
2023/08/13 12:04:31;;;;;;;3.30;3.00;;;28.80;61.10;;;;;;4996188;28;20540;-61
2023/08/13 12:07:02;;;;;;;2.20;1.77;;;28.70;61.90;;;;;;4996248;28;20454;-61
2023/08/13 12:09:29;;;;;;;2.60;2.10;;;28.70;62.30;;;;;;4996092;28;20955;-60
2023/08/13 12:11:57;;;;;;;3.43;2.40;;;28.70;61.70;;;;;;4981599;28;20487;-61
2023/08/13 12:14:24;;;;;;;6.57;3.27;;;28.60;63.60;;;;;;4977043;28;20545;-61
2023/08/13 12:16:51;;;;;;;7.60;3.77;;;28.70;60.80;;;;;;4976709;28;20916;-60
2023/08/13 12:19:18;;;;;;;4.70;2.83;;;28.60;60.80;;;;;;4976446;28;20947;-60
2023/08/13 12:21:45;;;;;;;4.07;2.77;;;28.50;61.20;;;;;;4976362;28;20562;-61
2023/08/13 12:24:13;;;;;;;3.00;1.90;;;28.60;62.50;;;;;;4976467;28;20537;-61
2023/08/13 12:26:40;;;;;;;3.67;2.37;;;30.40;64.00;;;;;;4993488;28;20479;-61
2023/08/13 12:29:07;;;;;;;4.90;2.70;;;28.50;61.90;;;;;;4995557;28;20573;-61
2023/08/13 12:31:34;;;;;;;4.20;2.00;;;28.50;61.60;;;;;;4995685;28;20450;-61
2023/08/13 12:34:01;;;;;;;3.30;2.70;;;28.50;61.30;;;;;;5007822;28;20456;-47
2023/08/13 12:36:28;;;;;;;4.37;2.63;;;28.50;61.50;;;;;;5019055;28;20426;-52
2023/08/13 12:38:59;;;;;;;3.40;2.57;;;28.50;62.70;;;;;;5019036;28;20485;-47
2023/08/13 12:41:33;;;;;;;2.87;2.20;;;28.70;63.10;;;;;;5019106;28;20407;-51
2023/08/13 12:44:00;;;;;;;2.37;2.10;;;28.80;63.20;;;;;;5018654;28;20462;-52
2023/08/13 12:46:27;;;;;;;2.93;2.20;;;28.70;62.50;;;;;;5016553;28;20446;-59
2023/08/13 12:48:54;;;;;;;2.93;2.20;;;28.80;63.30;;;;;;5016462;28;20962;-60
2023/08/13 12:51:21;;;;;;;6.17;2.10;;;28.80;61.80;;;;;;5014309;28;20442;-60